FAEO weather

Ermelo Airport
Ermelo, Mpumalanga, South Africa

Public forecast

Using degrees Celsius for public forecast. Weather courtesy of forecast.io.

Current aviation weather report (METAR) for Ermelo Airport

Report is more than 2 hours old.

Retrieved 2019/10/21 07:51 UTC (6 hours ago):

FAEO 210751Z 29006KT CAVOK 29/01 Q1020

Aviation forecast (TAF) for Ermelo Airport

Forecast is more than 12 hours old.

Retrieved 2017/06/05 04:55 UTC (2 years ago):

TAF FAEO 050300Z 0504/0515 09006KT CAVOK TX18/0513ZTN05/0504Z